Dades meteomassalio
Diari Summary for Abril 19, 2017 Units:  Metric    English   Both
« Previous Day
Next Day »
Diari Semanal Mensual Anual Personalitzat
  Maxima: Minima: Mijana:
Temperatura: -17.8 °C -12.4 °C -10.3 °C
Rosada: -17.8 °C -17 °C -14.8 °C
Humitat: Humidity % 41 % 59 %
Velocitat del vent: 0 km/h 0 km/h 16.1 km/h
Racha vent: 0 km/h - -
Vent:- - SSW
Pressio: 0 hPa 34428.8 hPa -
Pluja: 0 mm    
Historical Graphs
 
 
Tabular Data for Abril 19, 2017
Time Temperature Dew Point Pressure Wind Wind Speed Wind Gust Humidity Rainfall Rate (Hourly) solar Conditions
-17.8 °C -17.8 °C 0 hPa Calm     Humidity % 0 mm SolarRadiationWatts/m^2 W/m2 Conditions
00:01 -9 °C -14.6 °C 34428.8 hPa West 35.7 km/h 35.7 km/h 51 % 0 mm 0.0 W/m2 CLR
00:06 -9.1 °C -14.7 °C 34428.8 hPa West 28.5 km/h 28.5 km/h 51 % 0 mm 0.0 W/m2 CLR
00:11 -9.1 °C -14.7 °C 34442.4 hPa West 23.8 km/h 23.8 km/h 51 % 0 mm 0.0 W/m2 CLR
00:16 -9.1 °C -14.6 °C 34442.4 hPa West 20.9 km/h 20.9 km/h 52 % 0 mm 0.0 W/m2 CLR
00:21 -9.2 °C -14.6 °C 34442.4 hPa WSW 20.9 km/h 20.9 km/h 52 % 0 mm 0.0 W/m2 CLR
00:26 -9.2 °C -14.7 °C 34452.6 hPa West 11.9 km/h 11.9 km/h 52 % 0 mm 0.0 W/m2 CLR
00:31 -9.3 °C -14.6 °C 34452.6 hPa WNW 20.9 km/h 20.9 km/h 53 % 0 mm 0.0 W/m2 CLR
00:36 -9.4 °C -14.7 °C 34452.6 hPa WNW 6 km/h 6 km/h 53 % 0 mm 0.0 W/m2 CLR
00:41 -9.5 °C -14.6 °C 34452.6 hPa Calm     54 % 0 mm 0.0 W/m2 CLR
00:46 -9.6 °C -14.7 °C 34452.6 hPa Calm     54 % 0 mm 0.0 W/m2 CLR
00:51 -9.6 °C -14.6 °C 34462.7 hPa WNW 9 km/h 9 km/h 55 % 0 mm 0.0 W/m2 CLR
00:56 -9.6 °C -14.6 °C 34462.7 hPa WNW 20.9 km/h 20.9 km/h 55 % 0 mm 0.0 W/m2 CLR
01:01 -9.7 °C -14.6 °C 34462.7 hPa WNW 9 km/h 9 km/h 55 % 0 mm 0.0 W/m2 CLR
01:06 -9.8 °C -14.6 °C 34462.7 hPa West 11.9 km/h 11.9 km/h 56 % 0 mm 0.0 W/m2 CLR
01:11 -9.8 °C -14.6 °C 34462.7 hPa Calm     56 % 0 mm 0.0 W/m2 CLR
01:16 -9.8 °C -14.7 °C 34462.7 hPa Calm     56 % 0 mm 0.0 W/m2 CLR
01:21 -9.9 °C -14.7 °C 34462.7 hPa Calm     56 % 0 mm 0.0 W/m2 CLR
01:26 -9.9 °C -14.6 °C 34476.3 hPa WNW 15 km/h 15 km/h 57 % 0 mm 0.0 W/m2 CLR
01:31 -9.9 °C -14.6 °C 34476.3 hPa West 6 km/h 6 km/h 57 % 0 mm 0.0 W/m2 CLR
01:36 -10 °C -14.7 °C 34476.3 hPa WNW 9 km/h   57 % 0 mm 0.0 W/m2 CLR
01:41 -10.1 °C -14.6 °C 34476.3 hPa WNW 9 km/h 9 km/h 58 % 0 mm 0.0 W/m2 CLR
01:46 -10.2 °C -14.6 °C 34476.3 hPa WNW 15 km/h 15 km/h 59 % 0 mm 0.0 W/m2 CLR
01:51 -10.2 °C -14.6 °C 34476.3 hPa WNW 9 km/h 9 km/h 59 % 0 mm 0.0 W/m2 CLR
01:56 -10.3 °C -14.7 °C 34476.3 hPa West 9 km/h 9 km/h 59 % 0 mm 0.0 W/m2 CLR
02:01 -10.3 °C -14.7 °C 34476.3 hPa Calm     59 % 0 mm 0.0 W/m2 CLR
02:06 -10.4 °C -14.8 °C 34476.3 hPa Calm     59 % 0 mm 0.0 W/m2 CLR
02:11 -10.6 °C -14.8 °C 34476.3 hPa Calm     60 % 0 mm 0.0 W/m2 CLR
02:16 -10.8 °C -14.8 °C 34476.3 hPa Calm     61 % 0 mm 0.0 W/m2 CLR
02:21 -10.9 °C -14.9 °C 34476.3 hPa Calm     62 % 0 mm 0.0 W/m2 CLR
02:26 -11.1 °C -14.8 °C 34486.4 hPa Calm     63 % 0 mm 0.0 W/m2 CLR
02:31 -11.2 °C -14.9 °C 34486.4 hPa Calm     63 % 0 mm 0.0 W/m2 CLR
02:36 -11.2 °C -14.8 °C 34486.4 hPa Calm     64 % 0 mm 0.0 W/m2 CLR
02:41 -11.2 °C -14.7 °C 34486.4 hPa Calm     65 % 0 mm 0.0 W/m2 CLR
02:46 -11 °C -14.7 °C 34486.4 hPa West 3.1 km/h   64 % 0 mm 0.0 W/m2 CLR
02:51 -10.9 °C -14.8 °C 34486.4 hPa WSW 3.1 km/h   63 % 0 mm 0.0 W/m2 CLR
02:56 -11.1 °C -14.8 °C 34486.4 hPa SW 3.1 km/h 3.1 km/h 63 % 0 mm 0.0 W/m2 CLR
02:57 -11.1 °C -14.9 °C 34486.4 hPa SW 3.1 km/h 3.1 km/h 63 % 0 mm 0.0 W/m2 CLR
03:02 -11.3 °C -14.9 °C 34486.4 hPa WSW 6 km/h 6 km/h 65 % 0 mm 0.0 W/m2 CLR
03:07 -11.4 °C -14.8 °C 34496.6 hPa WSW 9 km/h 9 km/h 66 % 0 mm 0.0 W/m2 CLR
03:12 -11.4 °C -14.8 °C 34496.6 hPa West 10.3 km/h 10.3 km/h 66 % 0 mm 0.0 W/m2 CLR
03:17 -11.2 °C -14.9 °C 34486.4 hPa West 9 km/h 9 km/h 64 % 0 mm 0.0 W/m2 CLR
03:22 -11.2 °C -14.9 °C 34486.4 hPa WSW 6 km/h 6 km/h 64 % 0 mm 0.0 W/m2 CLR
03:27 -11.3 °C -15 °C 34486.4 hPa Calm     64 % 0 mm 0.0 W/m2 CLR
03:32 -11.4 °C -14.9 °C 34496.6 hPa WSW 9 km/h 9 km/h 65 % 0 mm 0.0 W/m2 CLR
03:37 -11.5 °C -14.9 °C 34496.6 hPa WSW 9 km/h 9.7 km/h 66 % 0 mm 0.0 W/m2 CLR
03:42 -11.5 °C -15.1 °C 34496.6 hPa Calm     65 % 0 mm 0.0 W/m2 CLR
03:47 -11.6 °C -15.1 °C 34496.6 hPa SW 6 km/h 6 km/h 66 % 0 mm 0.0 W/m2 CLR
03:52 -11.8 °C -15.1 °C 34496.6 hPa Calm   2.1 km/h 67 % 0 mm 0.0 W/m2 CLR
03:57 -12 °C -15.2 °C 34496.6 hPa SW 9 km/h 9 km/h 67 % 0 mm 0.0 W/m2 CLR
04:02 -12.2 °C -15.2 °C 34496.6 hPa Calm     69 % 0 mm 0.0 W/m2 CLR
04:07 -12.3 °C -15.2 °C 34496.6 hPa WSW 9 km/h 9 km/h 70 % 0 mm 0.0 W/m2 CLR
04:12 -12.1 °C -15.1 °C 34496.6 hPa West 15 km/h 15 km/h 70 % 0 mm 0.0 W/m2 CLR
04:17 -11.9 °C -15.1 °C 34496.6 hPa West 18.2 km/h 18.2 km/h 68 % 0 mm 0.0 W/m2 CLR
04:22 -11.6 °C -15 °C 34496.6 hPa West 20.9 km/h 20.9 km/h 66 % 0 mm 0.0 W/m2 CLR
04:27 -11.3 °C -15 °C 34496.6 hPa WNW 32.8 km/h 32.8 km/h 64 % 0 mm 0.0 W/m2 CLR
04:32 -11.2 °C -15.1 °C 34496.6 hPa WNW 29.8 km/h 29.8 km/h 62 % 0 mm 0.0 W/m2 CLR
04:37 -11.1 °C -15.3 °C 34496.6 hPa West 29.8 km/h 29.8 km/h 60 % 0 mm 0.0 W/m2 CLR
04:42 -11.1 °C -15.4 °C 34496.6 hPa WNW 29.8 km/h 29.8 km/h 59 % 0 mm 0.0 W/m2 CLR
04:47 -11 °C -15.3 °C 34510.1 hPa West 29.8 km/h 29.8 km/h 59 % 0 mm 0.0 W/m2 CLR
04:52 -11 °C -15.3 °C 34510.1 hPa West 20.8 km/h 20.8 km/h 59 % 0 mm 0.0 W/m2 CLR
04:57 -11.1 °C -15.4 °C 34510.1 hPa Calm     59 % 0 mm 0.0 W/m2 CLR
05:02 -11.5 °C -15.4 °C 34496.6 hPa Calm     62 % 0 mm 0.0 W/m2 CLR
05:07 -11.8 °C -15.5 °C 34496.6 hPa Calm     64 % 0 mm 0.0 W/m2 CLR
05:12 -12.1 °C -15.5 °C 34496.6 hPa Calm     66 % 0 mm 0.0 W/m2 CLR
05:17 -12.3 °C -15.4 °C 34496.6 hPa Calm     68 % 0 mm 0.0 W/m2 CLR
05:22 -12.3 °C -15.4 °C 34496.6 hPa Calm     68 % 0 mm 0.0 W/m2 CLR
05:27 -12.3 °C -15.4 °C 34496.6 hPa SSW 9 km/h 9 km/h 68 % 0 mm 0.0 W/m2 CLR
05:32 -12.1 °C -15.3 °C 34510.1 hPa SSW 11.9 km/h 11.9 km/h 67 % 0 mm 0.0 W/m2 CLR
05:37 -11.9 °C -15.3 °C 34496.6 hPa SW 9 km/h   66 % 0 mm 0.0 W/m2 CLR
05:42 -11.9 °C -15.3 °C 34496.6 hPa SW 6 km/h   66 % 0 mm 0.0 W/m2 CLR
05:47 -11.9 °C -15.3 °C 34496.6 hPa SW 6 km/h   66 % 0 mm 0.0 W/m2 CLR
05:52 -11.9 °C -15.3 °C 34510.1 hPa Calm     66 % 0 mm 0.0 W/m2 CLR
05:57 -11.9 °C -15.4 °C 34510.1 hPa Calm     65 % 0 mm 0.0 W/m2 CLR
06:02 -11.9 °C -15.4 °C 34496.6 hPa Calm     65 % 0 mm 0.0 W/m2 CLR
06:07 -11.9 °C -15.4 °C 34496.6 hPa Calm     65 % 0 mm 0.0 W/m2 CLR
06:12 -11.9 °C -15.4 °C 34496.6 hPa Calm     65 % 0 mm 0.0 W/m2 CLR
06:17 -12 °C -15.4 °C 34496.6 hPa Calm     66 % 0 mm 0.0 W/m2 CLR
06:22 -12.1 °C -15.4 °C 34496.6 hPa Calm     66 % 0 mm 0.0 W/m2 CLR
06:27 -12.1 °C -15.4 °C 34510.1 hPa Calm     66 % 0 mm 0.0 W/m2 CLR
06:32 -12.2 °C -15.5 °C 34510.1 hPa Calm     66 % 0 mm 0.0 W/m2 CLR
06:37 -12.1 °C -15.3 °C 34510.1 hPa Calm     67 % 0 mm 0.0 W/m2 CLR
06:42 -12.3 °C -15.4 °C 34510.1 hPa Calm     68 % 0 mm 0.0 W/m2 CLR
06:47 -12.4 °C -15.4 °C 34510.1 hPa Calm     69 % 0 mm 0.0 W/m2 CLR
06:52 -12.3 °C -15.4 °C 34520.3 hPa Calm     68 % 0 mm 0.0 W/m2 CLR
06:57 -12.2 °C -15.3 °C 34520.3 hPa Calm     68 % 0 mm 0.0 W/m2 CLR
07:02 -12.1 °C -15.6 °C 34520.3 hPa Calm     65 % 0 mm 0.0 W/m2 CLR
07:07 -12 °C -15.4 °C 34520.3 hPa Calm     65 % 0 mm 0.0 W/m2 OVC
07:12 -11.9 °C -15.4 °C 34520.3 hPa Calm     65 % 0 mm 0.0 W/m2 OVC
07:17 -11.8 °C -15.5 °C 34520.3 hPa Calm     64 % 0 mm 5.0 W/m2 OVC
07:23 -11.8 °C -15.6 °C 34533.8 hPa Calm     63 % 0 mm 5.0 W/m2 OVC
07:28 -11.8 °C -15.7 °C 34533.8 hPa SW 9 km/h 9 km/h 62 % 0 mm 7.0 W/m2 BKN
07:33 -11.7 °C -15.6 °C 34533.8 hPa SW 6 km/h 6 km/h 62 % 0 mm 11.0 W/m2 BKN
07:38 -11.6 °C -15.5 °C 34533.8 hPa Calm     62 % 0 mm 18.0 W/m2 BKN
07:43 -11.6 °C -15.8 °C 34533.8 hPa WSW 11.9 km/h 11.9 km/h 60 % 0 mm 19.0 W/m2 BKN
07:48 -11.6 °C -15.7 °C 34533.8 hPa Calm     60 % 0 mm 21.0 W/m2 BKN
07:53 -11.5 °C -15.8 °C 34533.8 hPa Calm     59 % 0 mm 26.0 W/m2 BKN
07:58 -11.5 °C -15.8 °C 34544 hPa Calm     59 % 0 mm 26.0 W/m2 BKN
08:03 -11.5 °C -15.8 °C 34544 hPa West 7.7 km/h 7.7 km/h 59 % 0 mm 33.0 W/m2 BKN
08:08 -11.5 °C -15.9 °C 34544 hPa WSW 9 km/h 9 km/h 58 % 0 mm 39.0 W/m2 BKN
08:13 -11.5 °C -15.9 °C 34544 hPa Calm     58 % 0 mm 35.0 W/m2 BKN
08:18 -11.5 °C -15.9 °C 34544 hPa Calm     58 % 0 mm 33.0 W/m2 BKN
08:23 -11.5 °C -16.1 °C 34544 hPa SW 11.9 km/h 11.9 km/h 57 % 0 mm 44.0 W/m2 BKN
08:28 -11.6 °C -16.1 °C 34554.1 hPa Calm     57 % 0 mm 47.0 W/m2 BKN
08:33 -11.5 °C -16.1 °C 34554.1 hPa Calm     57 % 0 mm 44.0 W/m2 SCT
08:38 -11.6 °C -16.2 °C 34544 hPa SSW 9 km/h 9 km/h 56 % 0 mm 44.0 W/m2 SCT
08:43 -11.6 °C -16.1 °C 34544 hPa Calm     57 % 0 mm 69.0 W/m2 SCT
08:48 -11.6 °C -16.1 °C 34544 hPa Calm     57 % 0 mm 70.0 W/m2 SCT
08:53 -11.6 °C -16.2 °C 34554.1 hPa Calm     57 % 0 mm 88.0 W/m2 FEW
08:58 -11.6 °C -16.2 °C 34554.1 hPa WSW 6 km/h 6 km/h 57 % 0 mm 97.0 W/m2 FEW
09:03 -11.6 °C -16.2 °C 34554.1 hPa WSW 6 km/h 6 km/h 57 % 0 mm 130.0 W/m2 CLR
09:08 -11.5 °C -16.1 °C 34554.1 hPa SW 9 km/h 9 km/h 57 % 0 mm 135.0 W/m2 CLR
09:13 -11.4 °C -16.3 °C 34554.1 hPa SW 10.3 km/h 10.3 km/h 55 % 0 mm 206.0 W/m2 CLR
09:18 -11.3 °C -16.2 °C 34544 hPa SW 11.9 km/h 11.9 km/h 55 % 0 mm 163.0 W/m2 CLR
09:23 -11.2 °C -16.3 °C 34554.1 hPa WSW 17.9 km/h 17.9 km/h 53 % 0 mm 98.0 W/m2 CLR
09:28 -11.2 °C -16.3 °C 34554.1 hPa West 9 km/h 9 km/h 53 % 0 mm 134.0 W/m2 CLR
09:33 -11.1 °C -16.4 °C 34554.1 hPa SW 17.9 km/h 17.9 km/h 52 % 0 mm 227.0 W/m2 CLR
09:38 -10.9 °C -16.6 °C 34554.1 hPa WNW 23.8 km/h 23.8 km/h 50 % 0 mm 221.0 W/m2 CLR
09:43 -10.9 °C -16.7 °C 34554.1 hPa West 23.8 km/h 23.8 km/h 49 % 0 mm 299.0 W/m2 CLR
09:48 -10.8 °C -16.6 °C 34554.1 hPa WSW 23.8 km/h 23.8 km/h 49 % 0 mm 269.0 W/m2 CLR
09:53 -10.8 °C -16.7 °C 34554.1 hPa West 23.8 km/h 23.8 km/h 48 % 0 mm 236.0 W/m2 CLR
09:58 -10.7 °C -16.5 °C 34554.1 hPa WSW 11.9 km/h 11.9 km/h 49 % 0 mm 239.0 W/m2 CLR
10:03 -10.6 °C -16.6 °C 34554.1 hPa WNW 15.6 km/h 15.6 km/h 48 % 0 mm 299.0 W/m2 CLR
10:09 -10.6 °C -16.7 °C 34554.1 hPa WNW 23.8 km/h 23.8 km/h 47 % 0 mm 438.0 W/m2 CLR
10:14 -10.4 °C -16.6 °C 34554.1 hPa West 29.8 km/h 29.8 km/h 47 % 0 mm 513.0 W/m2 CLR
10:19 -10.5 °C -16.8 °C 34554.1 hPa WNW 20.9 km/h 20.9 km/h 46 % 0 mm 295.0 W/m2 CLR
10:24 -10.5 °C -17 °C 34554.1 hPa WSW 11.9 km/h 11.9 km/h 45 % 0 mm 318.0 W/m2 CLR
10:29 -10.4 °C -16.8 °C 34554.1 hPa WSW 23.3 km/h 23.3 km/h 46 % 0 mm 325.0 W/m2 CLR
10:34 -10.4 °C -16.9 °C 34554.1 hPa SSW 20.8 km/h 20.8 km/h 45 % 0 mm 422.0 W/m2 CLR
10:39 -10.3 °C -17 °C 34554.1 hPa WSW 29.8 km/h 29.8 km/h 44 % 0 mm 360.0 W/m2 CLR
10:44 -10.2 °C -16.9 °C 34544 hPa SW 23.8 km/h 23.8 km/h 44 % 0 mm 387.0 W/m2 CLR
10:49 -10.1 °C -16.6 °C 34544 hPa SW 26.9 km/h 26.9 km/h 45 % 0 mm 512.0 W/m2 CLR
10:52 -9.9 °C -16.7 °C 34544 hPa SW 29.8 km/h 29.8 km/h 44 % 0 mm 454.0 W/m2 CLR
10:57 -9.9 °C -16.6 °C 34554.1 hPa WSW 9 km/h 9 km/h 44 % 0 mm 482.0 W/m2 CLR
11:02 -9.9 °C -16.9 °C 34554.1 hPa SW 29.8 km/h 29.8 km/h 42 % 0 mm 489.0 W/m2 CLR
11:07 -9.8 °C -16.5 °C 34544 hPa West 12.9 km/h 12.9 km/h 44 % 0 mm 483.0 W/m2 CLR
11:12 -9.6 °C -16.6 °C 34544 hPa West 18.2 km/h 18.2 km/h 43 % 0 mm 448.0 W/m2 CLR
11:17 -9.7 °C -16.6 °C 34554.1 hPa West 23.8 km/h 23.8 km/h 43 % 0 mm 399.0 W/m2 CLR
11:22 -9.7 °C -16.6 °C 34554.1 hPa SW 20.9 km/h 20.9 km/h 43 % 0 mm 410.0 W/m2 CLR
11:27 -9.6 °C -16.6 °C 34554.1 hPa West 15 km/h 15 km/h 43 % 0 mm 457.0 W/m2 CLR
11:32 -9.6 °C -16.7 °C 34554.1 hPa WSW 17.9 km/h 17.9 km/h 42 % 0 mm 425.0 W/m2 CLR
11:37 -9.6 °C -16.7 °C 34554.1 hPa SSW 10.3 km/h 10.3 km/h 42 % 0 mm 406.0 W/m2 CLR
11:42 -9.6 °C -16.9 °C 34554.1 hPa SSW 6 km/h 6.8 km/h 41 % 0 mm 476.0 W/m2 CLR
11:47 -9.6 °C -16.7 °C 34554.1 hPa WSW 26.9 km/h 26.9 km/h 42 % 0 mm 457.0 W/m2 CLR
11:52 -9.6 °C -16.6 °C 34554.1 hPa SW 11.9 km/h 11.9 km/h 42 % 0 mm 429.0 W/m2 CLR
11:57 -9.4 °C -16.6 °C 34554.1 hPa WSW 9 km/h 14.5 km/h 42 % 0 mm 420.0 W/m2 CLR
12:02 -9.3 °C -16.7 °C 34544 hPa SW 26.9 km/h 26.9 km/h 41 % 0 mm 464.0 W/m2 CLR
12:07 -9.3 °C -16.4 °C 34544 hPa WSW 20.9 km/h 20.9 km/h 42 % 0 mm 526.0 W/m2 CLR
12:12 -9.2 °C -16.2 °C 34544 hPa SW 15.6 km/h 16.1 km/h 43 % 0 mm 503.0 W/m2 CLR
12:17 -9.1 °C -16.5 °C 34544 hPa WSW 18.2 km/h 18.2 km/h 41 % 0 mm 478.0 W/m2 CLR
12:22 -9.1 °C -16.1 °C 34544 hPa WSW 23.8 km/h 23.8 km/h 43 % 0 mm 519.0 W/m2 CLR
12:27 -9.1 °C -16.1 °C 34544 hPa South 15.6 km/h 15.6 km/h 43 % 0 mm 420.0 W/m2 CLR
12:32 -9.1 °C -16 °C 34544 hPa Calm     43 % 0 mm 492.0 W/m2 CLR
12:37 -8.9 °C -15.7 °C 34544 hPa SSW 11.9 km/h 11.9 km/h 44 % 0 mm 598.0 W/m2 CLR
12:42 -8.8 °C -15.5 °C 34544 hPa SSW 15 km/h 15 km/h 45 % 0 mm 874.0 W/m2 CLR
12:47 -9 °C -14.8 °C 34544 hPa South 29.8 km/h 29.8 km/h 50 % 0 mm 615.0 W/m2 CLR
12:52 -9.2 °C -14.8 °C 34544 hPa South 20.9 km/h 20.9 km/h 51 % 0 mm 489.0 W/m2 CLR
12:57 -9.3 °C -15.2 °C 34544 hPa WSW 20.9 km/h 20.9 km/h 49 % 0 mm 454.0 W/m2 CLR
13:02 -9.1 °C -14.6 °C 34544 hPa SSW 12.9 km/h 12.9 km/h 52 % 0 mm 522.0 W/m2 CLR
13:07 -9.1 °C -14.4 °C 34544 hPa SSE 23.8 km/h 23.8 km/h 53 % 0 mm 526.0 W/m2 CLR
13:12 -9.2 °C -14.3 °C 34533.8 hPa South 20.8 km/h 20.8 km/h 54 % 0 mm 489.0 W/m2 CLR
13:17 -9.1 °C -14.4 °C 34533.8 hPa SW 23.8 km/h 23.8 km/h 53 % 0 mm 461.0 W/m2 CLR
13:22 -9.1 °C -14.1 °C 34533.8 hPa SSW 23.8 km/h 23.8 km/h 55 % 0 mm 357.0 W/m2 CLR
13:27 -9.2 °C -14.1 °C 34533.8 hPa SSE 29.8 km/h 29.8 km/h 56 % 0 mm 325.0 W/m2 CLR
13:32 -9.3 °C -14 °C 34533.8 hPa SSW 20.8 km/h 20.8 km/h 57 % 0 mm 313.0 W/m2 CLR
13:37 -9.3 °C -14 °C 34533.8 hPa SW 17.9 km/h 17.9 km/h 57 % 0 mm 294.0 W/m2 CLR
13:42 -9.3 °C -14.1 °C 34533.8 hPa SSE 26.9 km/h 26.9 km/h 57 % 0 mm 276.0 W/m2 CLR
13:47 -9.3 °C -14.1 °C 34533.8 hPa South 23.8 km/h 23.8 km/h 57 % 0 mm 352.0 W/m2 CLR
13:52 -9.4 °C -13.8 °C 34533.8 hPa SSE 15 km/h 15 km/h 59 % 0 mm 436.0 W/m2 CLR
13:57 -9.4 °C -13.4 °C 34520.3 hPa South 32.8 km/h 32.8 km/h 62 % 0 mm 399.0 W/m2 CLR
14:02 -9.5 °C -13.4 °C 34520.3 hPa SSE 11.9 km/h 11.9 km/h 63 % 0 mm 309.0 W/m2 CLR
14:07 -9.3 °C -13.6 °C 34520.3 hPa South 26.9 km/h 26.9 km/h 60 % 0 mm 490.0 W/m2 CLR
14:12 -9.2 °C -13.7 °C 34520.3 hPa South 23.8 km/h 23.8 km/h 59 % 0 mm 490.0 W/m2 CLR
14:17 -9.1 °C -13.4 °C 34520.3 hPa SW 17.9 km/h 17.9 km/h 60 % 0 mm 960.0 W/m2 CLR
14:22 -8.8 °C -13.3 °C 34520.3 hPa SSE 20.8 km/h 20.8 km/h 59 % 0 mm 979.0 W/m2 CLR
14:27 -8.8 °C -13.4 °C 34520.3 hPa SSW 36.2 km/h 36.2 km/h 58 % 0 mm 925.0 W/m2 CLR
14:32 -8.7 °C -13.4 °C 34520.3 hPa SW 15 km/h 15 km/h 57 % 0 mm 919.0 W/m2 CLR
14:37 -8.6 °C -13.3 °C 34520.3 hPa SSW 17.9 km/h 17.9 km/h 57 % 0 mm 893.0 W/m2 CLR
14:38 -8.6 °C -13.3 °C 34510.1 hPa South 20.9 km/h 20.9 km/h 57 % 0 mm 895.0 W/m2 CLR
14:43 -8.6 °C -13.5 °C 34510.1 hPa South 29.8 km/h 29.8 km/h 56 % 0 mm 271.0 W/m2 CLR
14:48 -8.7 °C -13.4 °C 34510.1 hPa SSE 35.7 km/h 35.7 km/h 57 % 0 mm 986.0 W/m2 CLR
14:53 -8.7 °C -13.2 °C 34510.1 hPa SSW 29.8 km/h 29.8 km/h 59 % 0 mm 1007.0 W/m2 CLR
14:58 -8.7 °C -13.3 °C 34496.6 hPa SSW 38.8 km/h 38.8 km/h 58 % 0 mm 916.0 W/m2 CLR
15:03 -8.8 °C -13.2 °C 34496.6 hPa South 38.8 km/h 38.8 km/h 59 % 0 mm 972.0 W/m2 CLR
15:08 -8.8 °C -13.3 °C 34510.1 hPa SSW 35.7 km/h 35.7 km/h 59 % 0 mm 889.0 W/m2 CLR
15:14 -8.7 °C -13.1 °C 34496.6 hPa SSW 29.8 km/h 29.8 km/h 59 % 0 mm 856.0 W/m2 CLR
15:19 -8.4 °C -13.2 °C 34496.6 hPa South 20.9 km/h 20.9 km/h 57 % 0 mm 840.0 W/m2 CLR
15:24 -8.4 °C -13.3 °C 34496.6 hPa South 29.8 km/h 29.8 km/h 56 % 0 mm 837.0 W/m2 CLR
15:29 -8.3 °C -13.2 °C 34496.6 hPa South 29.8 km/h 29.8 km/h 56 % 0 mm 851.0 W/m2 CLR
15:34 -8.4 °C -13.2 °C 34496.6 hPa South 33.6 km/h 33.6 km/h 57 % 0 mm 826.0 W/m2 CLR
15:39 -8.4 °C -13.3 °C 34496.6 hPa SSE 29.8 km/h 29.8 km/h 56 % 0 mm 893.0 W/m2 CLR
15:44 -8.4 °C -13.3 °C 34496.6 hPa SSW 32.8 km/h 32.8 km/h 56 % 0 mm 680.0 W/m2 CLR
15:49 -8.3 °C -13.2 °C 34486.4 hPa SSW 20.9 km/h 20.9 km/h 56 % 0 mm 366.0 W/m2 CLR
15:54 -8.2 °C -13.3 °C 34486.4 hPa SSE 23.8 km/h 23.8 km/h 55 % 0 mm 819.0 W/m2 CLR
15:59 -8.1 °C -13.2 °C 34486.4 hPa South 23.8 km/h 23.8 km/h 55 % 0 mm 870.0 W/m2 CLR
16:04 -8 °C -13.3 °C 34486.4 hPa SSE 29.8 km/h 29.8 km/h 54 % 0 mm 868.0 W/m2 CLR
16:09 -8.1 °C -13.2 °C 34486.4 hPa SSW 29.8 km/h 29.8 km/h 55 % 0 mm 172.0 W/m2 CLR
16:14 -8.2 °C -13.4 °C 34486.4 hPa SE 29.8 km/h 29.8 km/h 54 % 0 mm 257.0 W/m2 CLR
16:19 -8.1 °C -13.2 °C 34486.4 hPa South 32.8 km/h 32.8 km/h 55 % 0 mm 844.0 W/m2 CLR
16:24 -8.1 °C -13.2 °C 34476.3 hPa South 29.8 km/h 29.8 km/h 55 % 0 mm 814.0 W/m2 CLR
16:29 -7.9 °C -13.3 °C 34476.3 hPa South 29.8 km/h 29.8 km/h 53 % 0 mm 752.0 W/m2 CLR
16:34 -8.1 °C -13.3 °C 34476.3 hPa SSW 32.8 km/h 32.8 km/h 54 % 0 mm 185.0 W/m2 CLR
16:39 -8.3 °C -13.3 °C 34476.3 hPa SSE 26.9 km/h 26.9 km/h 55 % 0 mm 225.0 W/m2 CLR
16:44 -8.2 °C -13.4 °C 34476.3 hPa SE 29.8 km/h 29.8 km/h 54 % 0 mm 740.0 W/m2 CLR
16:49 -8.3 °C -13.5 °C 34476.3 hPa South 26.9 km/h 26.9 km/h 54 % 0 mm 221.0 W/m2 CLR
16:54 -8.1 °C -13.3 °C 34476.3 hPa SSE 29.8 km/h 29.8 km/h 54 % 0 mm 740.0 W/m2 CLR
16:59 -8.1 °C -13.5 °C 34476.3 hPa South 32.8 km/h 32.8 km/h 53 % 0 mm 163.0 W/m2 CLR
17:04 -8.2 °C -13.4 °C 34476.3 hPa SSE 29.8 km/h 29.8 km/h 54 % 0 mm 696.0 W/m2 CLR
17:09 -8.1 °C -13.3 °C 34476.3 hPa SSW 20.9 km/h 20.9 km/h 54 % 0 mm 708.0 W/m2 CLR
17:14 -7.9 °C -13.3 °C 34462.7 hPa ESE 25.9 km/h 25.9 km/h 53 % 0 mm 722.0 W/m2 CLR
17:19 -8 °C -13.4 °C 34462.7 hPa SSW 44.7 km/h 44.7 km/h 53 % 0 mm 714.0 W/m2 CLR
17:24 -8.1 °C -13.3 °C 34476.3 hPa South 23.8 km/h 23.8 km/h 54 % 0 mm 615.0 W/m2 CLR
17:29 -8.1 °C -13.4 °C 34476.3 hPa SE 41.7 km/h 41.7 km/h 53 % 0 mm 686.0 W/m2 CLR
17:34 -8.1 °C -13.3 °C 34476.3 hPa SSE 38.8 km/h 38.8 km/h 54 % 0 mm 603.0 W/m2 CLR
17:39 -8.1 °C -13.3 °C 34462.7 hPa SSE 26.9 km/h 26.9 km/h 54 % 0 mm 564.0 W/m2 CLR
17:44 -8.2 °C -13.4 °C 34462.7 hPa South 38.8 km/h 38.8 km/h 54 % 0 mm 534.0 W/m2 CLR
17:49 -8.2 °C -13.4 °C 34476.3 hPa SSW 50.7 km/h 50.7 km/h 54 % 0 mm 522.0 W/m2 CLR
17:54 -8.3 °C -13.6 °C 34476.3 hPa South 29.8 km/h 29.8 km/h 54 % 0 mm 508.0 W/m2 CLR
17:59 -8.5 °C -13.6 °C 34476.3 hPa SE 41.7 km/h 41.7 km/h 55 % 0 mm 462.0 W/m2 CLR
18:04 -8.6 °C -13.5 °C 34476.3 hPa SSW 41.4 km/h 41.4 km/h 56 % 0 mm 341.0 W/m2 CLR
18:09 -8.8 °C -13.7 °C 34486.4 hPa SSW 41.7 km/h 41.7 km/h 56 % 0 mm 294.0 W/m2 CLR
18:14 -8.9 °C -13.6 °C 34486.4 hPa SSW 26.9 km/h 26.9 km/h 58 % 0 mm 255.0 W/m2 CLR
18:19 -8.9 °C -13.6 °C 34486.4 hPa SSE 26.9 km/h 26.9 km/h 57 % 0 mm 283.0 W/m2 CLR
18:24 -9.1 °C -13.8 °C 34486.4 hPa SE 32.8 km/h 32.8 km/h 57 % 0 mm 392.0 W/m2 CLR
18:29 -9.2 °C -13.8 °C 34486.4 hPa South 29.8 km/h 29.8 km/h 58 % 0 mm 251.0 W/m2 CLR
18:34 -9.3 °C -13.8 °C 34486.4 hPa SSE 33.6 km/h 33.6 km/h 58 % 0 mm 185.0 W/m2 CLR
18:39 -9.3 °C -13.9 °C 34496.6 hPa SSE 29.8 km/h 29.8 km/h 58 % 0 mm 230.0 W/m2 CLR
18:44 -9.4 °C -13.8 °C 34496.6 hPa SSE 29.8 km/h 29.8 km/h 59 % 0 mm 188.0 W/m2 CLR
18:49 -9.5 °C -13.9 °C 34496.6 hPa SSE 44.7 km/h 44.7 km/h 59 % 0 mm 174.0 W/m2 CLR
18:54 -9.6 °C -14.1 °C 34496.6 hPa South 35.7 km/h 35.7 km/h 59 % 0 mm 142.0 W/m2 CLR
18:59 -9.7 °C -13.9 °C 34496.6 hPa South 38.8 km/h 38.8 km/h 60 % 0 mm 128.0 W/m2 CLR
19:04 -9.8 °C -14.1 °C 34510.1 hPa South 35.7 km/h 35.7 km/h 60 % 0 mm 125.0 W/m2 CLR
19:09 -9.8 °C -14.1 °C 34510.1 hPa SSE 41.7 km/h 41.7 km/h 60 % 0 mm 195.0 W/m2 CLR
19:14 -9.8 °C -14.1 °C 34510.1 hPa ESE 32.8 km/h 32.8 km/h 60 % 0 mm 176.0 W/m2 CLR
19:19 -9.8 °C -14.1 °C 34510.1 hPa ESE 23.8 km/h 23.8 km/h 60 % 0 mm 102.0 W/m2 CLR
19:24 -9.9 °C -14.1 °C 34510.1 hPa SE 32.8 km/h 32.8 km/h 61 % 0 mm 84.0 W/m2 CLR
19:29 -9.9 °C -14.1 °C 34510.1 hPa South 20.9 km/h 20.9 km/h 61 % 0 mm 74.0 W/m2 CLR
19:34 -10.1 °C -14.1 °C 34510.1 hPa SSE 35.7 km/h 35.7 km/h 61 % 0 mm 74.0 W/m2 FEW
19:39 -10.1 °C -14.2 °C 34510.1 hPa South 26.9 km/h 26.9 km/h 61 % 0 mm 123.0 W/m2 FEW
19:44 -10.2 °C -14.3 °C 34520.3 hPa South 26.9 km/h 26.9 km/h 61 % 0 mm 141.0 W/m2 CLR
19:49 -10.2 °C -14.2 °C 34520.3 hPa South 35.7 km/h 35.7 km/h 62 % 0 mm 132.0 W/m2 CLR
19:54 -10.2 °C -14.2 °C 34520.3 hPa South 32.8 km/h 32.8 km/h 62 % 0 mm 105.0 W/m2 CLR
19:59 -10.2 °C -14.2 °C 34520.3 hPa South 38.8 km/h 38.8 km/h 62 % 0 mm 90.0 W/m2 CLR
20:04 -10.3 °C -14.3 °C 34520.3 hPa South 20.9 km/h 20.9 km/h 62 % 0 mm 77.0 W/m2 FEW
20:09 -10.3 °C -14.3 °C 34533.8 hPa SSE 38.8 km/h 38.8 km/h 62 % 0 mm 63.0 W/m2 SCT
20:14 -10.4 °C -14.2 °C 34520.3 hPa South 44.1 km/h 44.1 km/h 63 % 0 mm 49.0 W/m2 SCT
20:19 -10.4 °C -14.3 °C 34533.8 hPa SSE 32.8 km/h 32.8 km/h 63 % 0 mm 35.0 W/m2 BKN
20:24 -10.5 °C -14.3 °C 34533.8 hPa South 35.7 km/h 35.7 km/h 63 % 0 mm 23.0 W/m2 BKN
20:29 -10.6 °C -14.4 °C 34533.8 hPa South 26.9 km/h 26.9 km/h 63 % 0 mm 16.0 W/m2 BKN
20:34 -10.6 °C -14.3 °C 34533.8 hPa South 29.8 km/h 29.8 km/h 64 % 0 mm 12.0 W/m2 BKN
20:39 -10.7 °C -14.4 °C 34533.8 hPa SE 17.9 km/h 17.9 km/h 64 % 0 mm 7.0 W/m2 BKN
20:44 -10.7 °C -14.4 °C 34533.8 hPa South 20.9 km/h 20.9 km/h 64 % 0 mm 0.0 W/m2 OVC
20:49 -10.8 °C -14.3 °C 34544 hPa SSE 31.1 km/h 31.1 km/h 65 % 0 mm 0.0 W/m2 OVC
20:54 -10.8 °C -14.4 °C 34544 hPa South 15.6 km/h 15.6 km/h 65 % 0 mm 0.0 W/m2 CLR
20:59 -10.9 °C -14.3 °C 34544 hPa South 18.2 km/h 18.2 km/h 66 % 0 mm 0.0 W/m2 CLR
21:04 -11 °C -14.4 °C 34544 hPa South 11.9 km/h 11.9 km/h 66 % 0 mm 0.0 W/m2 CLR
21:09 -11 °C -14.4 °C 34554.1 hPa SSE 18.2 km/h 18.2 km/h 66 % 0 mm 0.0 W/m2 CLR
21:14 -11.1 °C -14.4 °C 34554.1 hPa SSW 20.9 km/h 20.9 km/h 67 % 0 mm 0.0 W/m2 CLR
21:19 -11.2 °C -14.4 °C 34554.1 hPa South 23.8 km/h 23.8 km/h 67 % 0 mm 0.0 W/m2 CLR
21:24 -11.2 °C -14.4 °C 34567.7 hPa Calm     68 % 0 mm 0.0 W/m2 CLR
21:29 -11.2 °C -14.4 °C 34567.7 hPa SE 9 km/h 9 km/h 68 % 0 mm 0.0 W/m2 CLR
21:34 -11.3 °C -14.4 °C 34567.7 hPa South 3.1 km/h 3.1 km/h 68 % 0 mm 0.0 W/m2 CLR
21:39 -11.3 °C -14.4 °C 34567.7 hPa SSE 11.9 km/h 11.9 km/h 68 % 0 mm 0.0 W/m2 CLR
21:44 -11.3 °C -14.5 °C 34567.7 hPa South 3.1 km/h 3.1 km/h 68 % 0 mm 0.0 W/m2 CLR
21:49 -11.4 °C -14.6 °C 34567.7 hPa South 9 km/h 9 km/h 68 % 0 mm 0.0 W/m2 CLR
21:54 -11.4 °C -14.5 °C 34577.8 hPa Calm     69 % 0 mm 0.0 W/m2 CLR
21:59 -11.5 °C -14.6 °C 34577.8 hPa SSW 15 km/h 15 km/h 69 % 0 mm 0.0 W/m2 CLR
22:04 -11.5 °C -14.6 °C 34577.8 hPa SE 9 km/h 9 km/h 69 % 0 mm 0.0 W/m2 CLR
22:09 -11.6 °C -14.5 °C 34577.8 hPa South 20.9 km/h 20.9 km/h 70 % 0 mm 0.0 W/m2 CLR
22:14 -11.6 °C -14.5 °C 34577.8 hPa SSE 5.1 km/h 5.1 km/h 70 % 0 mm 0.0 W/m2 CLR
22:19 -11.6 °C -14.6 °C 34591.4 hPa South 9 km/h 9 km/h 70 % 0 mm 0.0 W/m2 CLR
22:24 -11.6 °C -14.6 °C 34591.4 hPa SSE 9 km/h 9 km/h 70 % 0 mm 0.0 W/m2 CLR
22:29 -11.7 °C -14.6 °C 34591.4 hPa SSE 7.7 km/h 7.7 km/h 70 % 0 mm 0.0 W/m2 CLR
22:34 -11.7 °C -14.5 °C 34591.4 hPa SSE 11.9 km/h 11.9 km/h 71 % 0 mm 0.0 W/m2 CLR
22:39 -11.7 °C -14.5 °C 34591.4 hPa South 11.9 km/h 11.9 km/h 71 % 0 mm 0.0 W/m2 CLR
22:44 -11.7 °C -14.6 °C 34591.4 hPa South 9 km/h 9 km/h 71 % 0 mm 0.0 W/m2 CLR
22:50 -11.7 °C -14.6 °C 34591.4 hPa Calm     71 % 0 mm 0.0 W/m2 CLR
22:55 -11.8 °C -14.6 °C 34601.5 hPa Calm     71 % 0 mm 0.0 W/m2 CLR
23:00 -11.8 °C -14.6 °C 34601.5 hPa SSE 9 km/h 9 km/h 71 % 0 mm 0.0 W/m2 CLR
23:05 -11.8 °C -14.6 °C 34601.5 hPa Calm     71 % 0 mm 0.0 W/m2 CLR
23:10 -11.8 °C -14.6 °C 34601.5 hPa SSE 9 km/h 9 km/h 71 % 0 mm 0.0 W/m2 CLR
23:15 -11.8 °C -14.6 °C 34601.5 hPa Calm     71 % 0 mm 0.0 W/m2 CLR
23:20 -11.8 °C -14.5 °C 34601.5 hPa Calm     72 % 0 mm 0.0 W/m2 CLR
23:25 -11.9 °C -14.6 °C 34601.5 hPa Calm     72 % 0 mm 0.0 W/m2 CLR
23:30 -11.9 °C -14.6 °C 34611.7 hPa Calm     72 % 0 mm 0.0 W/m2 CLR
23:35 -12 °C -14.7 °C 34611.7 hPa Calm     72 % 0 mm 0.0 W/m2 CLR
23:40 -12 °C -14.6 °C 34611.7 hPa Calm     73 % 0 mm 0.0 W/m2 CLR
23:45 -12.1 °C -14.6 °C 34611.7 hPa Calm     73 % 0 mm 0.0 W/m2 CLR
23:50 -12.1 °C -14.7 °C 34611.7 hPa Calm     73 % 0 mm 0.0 W/m2 CLR
23:55 -12.1 °C -14.7 °C 34625.2 hPa Calm     73 % 0 mm 0.0 W/m2 CLR
Lo Temps de Massalio
Compliments of Weather Underground - 1.25 mb